sensor_id;sensor_type;location;lat;lon;timestamp;pressure;altitude;pressure_sealevel;temperature;humidity
48644;BME280;34928;37.302;-121.984;2023-08-12T00:02:12;100702.0;;;34.84;26.54
48644;BME280;34928;37.302;-121.984;2023-08-12T00:12:17;100701.0;;;35.29;26.41
48644;BME280;34928;37.302;-121.984;2023-08-12T00:22:23;100707.0;;;35.13;26.37
48644;BME280;34928;37.302;-121.984;2023-08-12T00:32:27;100713.0;;;35.08;26.39
48644;BME280;34928;37.302;-121.984;2023-08-12T00:42:32;100715.0;;;35.41;26.31
48644;BME280;34928;37.302;-121.984;2023-08-12T00:52:37;100722.0;;;35.68;26.31
48644;BME280;34928;37.302;-121.984;2023-08-12T01:02:44;100725.0;;;35.19;26.34
48644;BME280;34928;37.302;-121.984;2023-08-12T01:12:52;100727.0;;;35.33;26.18
48644;BME280;34928;37.302;-121.984;2023-08-12T01:23:10;100741.0;;;35.62;26.18
48644;BME280;34928;37.302;-121.984;2023-08-12T01:33:24;100754.0;;;35.18;26.15
48644;BME280;34928;37.302;-121.984;2023-08-12T01:43:33;100769.0;;;35.35;26.18
48644;BME280;34928;37.302;-121.984;2023-08-12T01:53:37;100767.0;;;35.39;26.13
48644;BME280;34928;37.302;-121.984;2023-08-12T02:03:43;100775.0;;;35.44;26.04
48644;BME280;34928;37.302;-121.984;2023-08-12T02:13:47;100777.0;;;35.36;26.08
48644;BME280;34928;37.302;-121.984;2023-08-12T02:23:53;100780.0;;;35.32;26.11
48644;BME280;34928;37.302;-121.984;2023-08-12T02:33:57;100788.0;;;35.33;26.06
48644;BME280;34928;37.302;-121.984;2023-08-12T02:44:03;100795.0;;;35.04;26.30
48644;BME280;34928;37.302;-121.984;2023-08-12T02:54:07;100811.0;;;35.34;26.24
48644;BME280;34928;37.302;-121.984;2023-08-12T03:04:12;100814.0;;;35.39;26.17
48644;BME280;34928;37.302;-121.984;2023-08-12T03:14:17;100818.0;;;35.40;26.15
48644;BME280;34928;37.302;-121.984;2023-08-12T03:24:23;100811.0;;;35.38;26.11
48644;BME280;34928;37.302;-121.984;2023-08-12T03:34:29;100823.0;;;35.10;26.13
48644;BME280;34928;37.302;-121.984;2023-08-12T03:44:32;100828.0;;;35.05;26.14
48644;BME280;34928;37.302;-121.984;2023-08-12T03:54:37;100826.0;;;34.88;26.20
48644;BME280;34928;37.302;-121.984;2023-08-12T04:04:42;100840.0;;;34.99;26.04
48644;BME280;34928;37.302;-121.984;2023-08-12T04:14:48;100846.0;;;35.10;25.93
48644;BME280;34928;37.302;-121.984;2023-08-12T04:24:52;100853.0;;;34.98;25.92
48644;BME280;34928;37.302;-121.984;2023-08-12T04:34:58;100861.0;;;34.77;26.16
48644;BME280;34928;37.302;-121.984;2023-08-12T04:45:03;100863.0;;;34.86;26.19
48644;BME280;34928;37.302;-121.984;2023-08-12T04:55:08;100887.0;;;34.23;26.23
48644;BME280;34928;37.302;-121.984;2023-08-12T05:05:12;100894.0;;;34.59;26.32
48644;BME280;34928;37.302;-121.984;2023-08-12T05:15:18;100907.0;;;34.60;26.23
48644;BME280;34928;37.302;-121.984;2023-08-12T05:25:22;100913.0;;;34.48;26.24
48644;BME280;34928;37.302;-121.984;2023-08-12T05:35:32;100912.0;;;34.30;26.25
48644;BME280;34928;37.302;-121.984;2023-08-12T05:45:38;100921.0;;;34.14;26.32
48644;BME280;34928;37.302;-121.984;2023-08-12T05:55:43;100920.0;;;34.08;26.24
48644;BME280;34928;37.302;-121.984;2023-08-12T06:05:48;100922.0;;;34.30;26.27
48644;BME280;34928;37.302;-121.984;2023-08-12T06:15:53;100930.0;;;33.67;26.41
48644;BME280;34928;37.302;-121.984;2023-08-12T06:25:58;100943.0;;;33.87;26.38
48644;BME280;34928;37.302;-121.984;2023-08-12T06:36:04;100949.0;;;33.77;26.42
48644;BME280;34928;37.302;-121.984;2023-08-12T06:46:07;100955.0;;;33.75;26.41
48644;BME280;34928;37.302;-121.984;2023-08-12T06:56:12;100961.0;;;33.82;26.50
48644;BME280;34928;37.302;-121.984;2023-08-12T07:06:17;100961.0;;;33.54;26.49
48644;BME280;34928;37.302;-121.984;2023-08-12T07:16:22;100964.0;;;33.56;26.60
48644;BME280;34928;37.302;-121.984;2023-08-12T07:26:28;100964.0;;;33.39;26.73
48644;BME280;34928;37.302;-121.984;2023-08-12T07:36:34;100954.0;;;33.57;26.74
48644;BME280;34928;37.302;-121.984;2023-08-12T07:46:38;100956.0;;;33.23;26.74
48644;BME280;34928;37.302;-121.984;2023-08-12T07:56:42;100944.0;;;33.16;26.74
48644;BME280;34928;37.302;-121.984;2023-08-12T08:06:47;100933.0;;;33.44;26.65
48644;BME280;34928;37.302;-121.984;2023-08-12T08:16:52;100929.0;;;33.17;26.83
48644;BME280;34928;37.302;-121.984;2023-08-12T08:26:59;100911.0;;;33.23;26.71
48644;BME280;34928;37.302;-121.984;2023-08-12T08:37:04;100903.0;;;33.04;26.82
48644;BME280;34928;37.302;-121.984;2023-08-12T08:47:07;100897.0;;;32.90;26.88
48644;BME280;34928;37.302;-121.984;2023-08-12T08:57:13;100885.0;;;32.85;26.86
48644;BME280;34928;37.302;-121.984;2023-08-12T09:07:18;100882.0;;;32.78;26.85
48644;BME280;34928;37.302;-121.984;2023-08-12T09:17:22;100870.0;;;32.62;26.91
48644;BME280;34928;37.302;-121.984;2023-08-12T09:27:28;100867.0;;;32.98;26.97
48644;BME280;34928;37.302;-121.984;2023-08-12T09:37:33;100866.0;;;32.68;26.96
48644;BME280;34928;37.302;-121.984;2023-08-12T09:47:38;100855.0;;;32.40;26.98
48644;BME280;34928;37.302;-121.984;2023-08-12T09:57:44;100853.0;;;32.32;26.96
48644;BME280;34928;37.302;-121.984;2023-08-12T10:07:53;100851.0;;;32.14;27.05
48644;BME280;34928;37.302;-121.984;2023-08-12T10:17:58;100852.0;;;32.56;27.00
48644;BME280;34928;37.302;-121.984;2023-08-12T10:28:02;100846.0;;;32.27;26.96
48644;BME280;34928;37.302;-121.984;2023-08-12T10:38:08;100859.0;;;32.48;26.90
48644;BME280;34928;37.302;-121.984;2023-08-12T10:48:17;100844.0;;;31.93;26.93
48644;BME280;34928;37.302;-121.984;2023-08-12T10:58:28;100835.0;;;32.34;26.89
48644;BME280;34928;37.302;-121.984;2023-08-12T11:08:34;100835.0;;;32.06;27.08
48644;BME280;34928;37.302;-121.984;2023-08-12T11:18:38;100832.0;;;32.06;27.00
48644;BME280;34928;37.302;-121.984;2023-08-12T11:28:42;100841.0;;;31.75;27.02
48644;BME280;34928;37.302;-121.984;2023-08-12T11:38:47;100843.0;;;31.85;27.05
48644;BME280;34928;37.302;-121.984;2023-08-12T11:48:52;100854.0;;;31.77;27.06
48644;BME280;34928;37.302;-121.984;2023-08-12T11:58:58;100855.0;;;31.70;27.08
48644;BME280;34928;37.302;-121.984;2023-08-12T12:09:05;100853.0;;;31.54;27.15
48644;BME280;34928;37.302;-121.984;2023-08-12T12:19:14;100848.0;;;31.40;27.22
48644;BME280;34928;37.302;-121.984;2023-08-12T12:29:18;100838.0;;;31.33;27.21
48644;BME280;34928;37.302;-121.984;2023-08-12T12:39:22;100835.0;;;31.49;27.28
48644;BME280;34928;37.302;-121.984;2023-08-12T12:49:27;100841.0;;;31.49;27.19
48644;BME280;34928;37.302;-121.984;2023-08-12T12:59:32;100853.0;;;31.04;27.29
48644;BME280;34928;37.302;-121.984;2023-08-12T13:09:38;100872.0;;;31.04;27.23
48644;BME280;34928;37.302;-121.984;2023-08-12T13:19:43;100880.0;;;31.06;27.14
48644;BME280;34928;37.302;-121.984;2023-08-12T13:29:48;100891.0;;;31.42;27.22
48644;BME280;34928;37.302;-121.984;2023-08-12T13:39:53;100893.0;;;31.27;27.32
48644;BME280;34928;37.302;-121.984;2023-08-12T13:49:57;100891.0;;;31.15;27.39
48644;BME280;34928;37.302;-121.984;2023-08-12T14:00:03;100903.0;;;31.05;27.42
48644;BME280;34928;37.302;-121.984;2023-08-12T14:10:08;100901.0;;;30.94;27.46
48644;BME280;34928;37.302;-121.984;2023-08-12T14:20:13;100915.0;;;31.04;27.33
48644;BME280;34928;37.302;-121.984;2023-08-12T14:30:19;100923.0;;;30.94;27.38
48644;BME280;34928;37.302;-121.984;2023-08-12T14:40:27;100930.0;;;30.98;27.30
48644;BME280;34928;37.302;-121.984;2023-08-12T14:50:32;100940.0;;;30.94;27.30
48644;BME280;34928;37.302;-121.984;2023-08-12T15:00:37;100929.0;;;30.97;27.24
48644;BME280;34928;37.302;-121.984;2023-08-12T15:10:43;100939.0;;;30.83;27.17
48644;BME280;34928;37.302;-121.984;2023-08-12T15:20:48;100942.0;;;31.16;27.07
48644;BME280;34928;37.302;-121.984;2023-08-12T15:30:53;100946.0;;;31.24;26.99
48644;BME280;34928;37.302;-121.984;2023-08-12T15:40:57;100938.0;;;31.29;26.95
48644;BME280;34928;37.302;-121.984;2023-08-12T15:51:03;100947.0;;;31.42;26.83
48644;BME280;34928;37.302;-121.984;2023-08-12T16:01:07;100936.0;;;31.28;26.72
48644;BME280;34928;37.302;-121.984;2023-08-12T16:11:13;100928.0;;;31.42;26.60
48644;BME280;34928;37.302;-121.984;2023-08-12T16:21:17;100932.0;;;31.31;26.47
48644;BME280;34928;37.302;-121.984;2023-08-12T16:31:22;100916.0;;;31.95;26.33
48644;BME280;34928;37.302;-121.984;2023-08-12T16:41:27;100917.0;;;31.84;26.22
48644;BME280;34928;37.302;-121.984;2023-08-12T16:51:32;100916.0;;;31.56;26.23
48644;BME280;34928;37.302;-121.984;2023-08-12T17:01:38;100923.0;;;31.84;26.24
48644;BME280;34928;37.302;-121.984;2023-08-12T17:11:43;100927.0;;;31.84;26.27
48644;BME280;34928;37.302;-121.984;2023-08-12T17:21:48;100931.0;;;31.83;26.31
48644;BME280;34928;37.302;-121.984;2023-08-12T17:31:52;100940.0;;;32.03;26.16
48644;BME280;34928;37.302;-121.984;2023-08-12T17:41:58;100943.0;;;31.90;26.19
48644;BME280;34928;37.302;-121.984;2023-08-12T17:52:03;100939.0;;;32.50;26.18
48644;BME280;34928;37.302;-121.984;2023-08-12T18:02:07;100939.0;;;32.12;26.14
48644;BME280;34928;37.302;-121.984;2023-08-12T18:12:12;100932.0;;;32.27;26.06
48644;BME280;34928;37.302;-121.984;2023-08-12T18:22:17;100933.0;;;32.31;26.10
48644;BME280;34928;37.302;-121.984;2023-08-12T18:32:23;100930.0;;;32.21;26.07
48644;BME280;34928;37.302;-121.984;2023-08-12T18:42:27;100924.0;;;32.27;26.11
48644;BME280;34928;37.302;-121.984;2023-08-12T18:52:33;100923.0;;;32.46;26.28
48644;BME280;34928;37.302;-121.984;2023-08-12T19:02:38;100910.0;;;32.50;26.34
48644;BME280;34928;37.302;-121.984;2023-08-12T19:12:42;100909.0;;;32.54;26.36
48644;BME280;34928;37.302;-121.984;2023-08-12T19:22:48;100897.0;;;32.43;26.35
48644;BME280;34928;37.302;-121.984;2023-08-12T19:32:54;100893.0;;;32.90;26.18
48644;BME280;34928;37.302;-121.984;2023-08-12T19:42:58;100891.0;;;32.57;26.15
48644;BME280;34928;37.302;-121.984;2023-08-12T19:53:03;100883.0;;;32.97;26.09
48644;BME280;34928;37.302;-121.984;2023-08-12T20:03:07;100876.0;;;33.35;26.04
48644;BME280;34928;37.302;-121.984;2023-08-12T20:13:13;100880.0;;;33.08;26.01
48644;BME280;34928;37.302;-121.984;2023-08-12T20:23:18;100877.0;;;33.35;26.10
48644;BME280;34928;37.302;-121.984;2023-08-12T20:33:23;100869.0;;;33.31;26.05
48644;BME280;34928;37.302;-121.984;2023-08-12T20:43:28;100861.0;;;33.25;26.25
48644;BME280;34928;37.302;-121.984;2023-08-12T20:53:32;100853.0;;;33.25;26.40
48644;BME280;34928;37.302;-121.984;2023-08-12T21:03:37;100845.0;;;33.43;26.36
48644;BME280;34928;37.302;-121.984;2023-08-12T21:13:43;100839.0;;;33.63;26.30
48644;BME280;34928;37.302;-121.984;2023-08-12T21:23:48;100829.0;;;33.49;26.50
48644;BME280;34928;37.302;-121.984;2023-08-12T21:33:52;100828.0;;;33.53;26.60
48644;BME280;34928;37.302;-121.984;2023-08-12T21:43:57;100824.0;;;33.51;26.46
48644;BME280;34928;37.302;-121.984;2023-08-12T21:54:04;100806.0;;;33.88;26.23
48644;BME280;34928;37.302;-121.984;2023-08-12T22:04:08;100803.0;;;33.80;26.39
48644;BME280;34928;37.302;-121.984;2023-08-12T22:14:13;100775.0;;;34.17;26.13
48644;BME280;34928;37.302;-121.984;2023-08-12T22:24:17;100761.0;;;34.16;26.18
48644;BME280;34928;37.302;-121.984;2023-08-12T22:34:22;100751.0;;;34.65;26.02
48644;BME280;34928;37.302;-121.984;2023-08-12T22:44:27;100741.0;;;34.52;26.03
48644;BME280;34928;37.302;-121.984;2023-08-12T22:54:33;100736.0;;;34.39;26.01
48644;BME280;34928;37.302;-121.984;2023-08-12T23:04:37;100728.0;;;34.95;26.03
48644;BME280;34928;37.302;-121.984;2023-08-12T23:14:42;100721.0;;;34.83;25.97
48644;BME280;34928;37.302;-121.984;2023-08-12T23:24:47;100712.0;;;34.77;25.86
48644;BME280;34928;37.302;-121.984;2023-08-12T23:34:52;100707.0;;;34.62;25.84
48644;BME280;34928;37.302;-121.984;2023-08-12T23:44:58;100702.0;;;34.60;26.04
48644;BME280;34928;37.302;-121.984;2023-08-12T23:55:03;100693.0;;;35.05;25.94
